createdAt,value
2023-04-11T00:00:02.001Z,7.20
2023-04-11T00:02:30.742Z,19.20
2023-04-11T00:04:58.895Z,17.77
2023-04-11T00:07:25.652Z,13.07
2023-04-11T00:09:52.328Z,14.07
2023-04-11T00:12:18.932Z,6.90
2023-04-11T00:14:48.945Z,20.25
2023-04-11T00:17:17.691Z,27.17
2023-04-11T00:19:46.211Z,16.23
2023-04-11T00:22:13.879Z,17.23
2023-04-11T00:24:40.625Z,14.23
2023-04-11T00:27:07.355Z,15.40
2023-04-11T00:29:34.234Z,16.37
2023-04-11T00:32:01.161Z,18.30
2023-04-11T00:34:28.362Z,13.25
2023-04-11T00:36:55.112Z,13.80
2023-04-11T00:39:22.878Z,21.02
2023-04-11T00:41:49.388Z,23.33
2023-04-11T00:44:16.128Z,28.33
2023-04-11T00:46:45.993Z,16.42
2023-04-11T00:49:13.541Z,15.63
2023-04-11T00:51:40.286Z,20.70
2023-04-11T00:54:10.531Z,15.37
2023-04-11T00:56:37.248Z,13.30
2023-04-11T00:59:03.833Z,21.10
2023-04-11T01:01:30.451Z,14.20
2023-04-11T01:03:57.368Z,21.00
2023-04-11T01:06:24.241Z,21.43
2023-04-11T01:08:51.015Z,21.48
2023-04-11T01:11:20.340Z,21.65
2023-04-11T01:13:47.154Z,24.10
2023-04-11T01:16:15.122Z,21.75
2023-04-11T01:18:41.962Z,12.63
2023-04-11T01:21:09.630Z,11.68
2023-04-11T01:23:36.084Z,15.13
2023-04-11T01:26:02.662Z,21.33
2023-04-11T01:28:29.208Z,6.97
2023-04-11T01:30:55.852Z,15.80
2023-04-11T01:33:22.578Z,14.45
2023-04-11T01:35:49.472Z,18.02
2023-04-11T01:38:16.359Z,15.88
2023-04-11T01:40:45.073Z,16.83
2023-04-11T01:43:12.427Z,9.00
2023-04-11T01:45:40.076Z,9.98
2023-04-11T01:48:08.624Z,13.45
2023-04-11T01:50:35.920Z,13.68
2023-04-11T01:53:02.568Z,4.70
2023-04-11T01:55:29.161Z,9.83
2023-04-11T01:57:55.961Z,5.28
2023-04-11T02:00:22.498Z,9.40
2023-04-11T02:02:49.118Z,12.18
2023-04-11T02:05:15.893Z,7.95
2023-04-11T02:07:42.494Z,12.57
2023-04-11T02:10:09.832Z,10.18
2023-04-11T02:12:36.407Z,7.63
2023-04-11T02:15:03.154Z,6.70
2023-04-11T02:17:31.359Z,8.30
2023-04-11T02:19:58.078Z,5.20
2023-04-11T02:22:25.073Z,8.52
2023-04-11T02:24:51.640Z,7.07
2023-04-11T02:27:18.382Z,12.05
2023-04-11T02:29:44.846Z,9.40
2023-04-11T02:32:11.576Z,6.07
2023-04-11T02:34:38.148Z,6.38
2023-04-11T02:37:04.811Z,7.15
2023-04-11T02:39:31.669Z,8.18
2023-04-11T02:41:58.248Z,6.82
2023-04-11T02:44:26.477Z,3.93
2023-04-11T02:46:52.988Z,7.28
2023-04-11T02:49:20.091Z,6.80
2023-04-11T02:51:47.240Z,4.97
2023-04-11T02:54:14.002Z,10.05
2023-04-11T02:56:40.529Z,5.93
2023-04-11T02:59:07.456Z,6.25
2023-04-11T03:01:34.235Z,3.85
2023-04-11T03:04:01.053Z,6.05
2023-04-11T03:06:28.187Z,2.63
2023-04-11T03:08:55.355Z,2.37
2023-04-11T03:11:25.738Z,3.75
2023-04-11T03:13:52.540Z,1.65
2023-04-11T03:16:20.012Z,8.85
2023-04-11T03:18:46.859Z,4.72
2023-04-11T03:21:13.560Z,5.00
2023-04-11T03:23:40.478Z,3.78
2023-04-11T03:26:07.671Z,4.88
2023-04-11T03:28:34.621Z,5.22
2023-04-11T03:31:01.296Z,6.30
2023-04-11T03:33:27.999Z,10.30
2023-04-11T03:35:54.757Z,7.82
2023-04-11T03:38:21.619Z,4.47
2023-04-11T03:40:48.489Z,5.32
2023-04-11T03:43:16.803Z,5.05
2023-04-11T03:45:43.938Z,3.77
2023-04-11T03:48:10.629Z,9.60
2023-04-11T03:50:37.543Z,6.38
2023-04-11T03:53:04.596Z,4.85
2023-04-11T03:55:31.421Z,3.88
2023-04-11T03:57:57.884Z,6.87
2023-04-11T04:00:24.465Z,1.55
2023-04-11T04:02:51.322Z,6.00
2023-04-11T04:05:18.165Z,2.58
2023-04-11T04:07:44.750Z,5.90
2023-04-11T04:10:11.256Z,6.60
2023-04-11T04:12:37.866Z,6.05
2023-04-11T04:15:04.842Z,3.70
2023-04-11T04:17:31.488Z,6.80
2023-04-11T04:19:58.174Z,8.95
2023-04-11T04:22:26.744Z,6.07
2023-04-11T04:24:53.270Z,3.88
2023-04-11T04:27:19.853Z,9.90
2023-04-11T04:29:47.369Z,5.65
2023-04-11T04:32:23.212Z,8.40
2023-04-11T04:34:55.125Z,6.17
2023-04-11T04:37:24.474Z,5.18
2023-04-11T04:39:55.406Z,3.08
2023-04-11T04:42:25.942Z,10.52
2023-04-11T04:44:53.951Z,5.90
2023-04-11T04:47:23.885Z,4.47
2023-04-11T04:49:55.674Z,6.57
2023-04-11T04:52:26.434Z,8.40
2023-04-11T04:54:54.031Z,5.07
2023-04-11T04:57:21.161Z,4.00
2023-04-11T04:59:47.795Z,2.90
2023-04-11T05:02:14.427Z,5.80
2023-04-11T05:04:42.064Z,5.45
2023-04-11T05:07:08.656Z,6.72
2023-04-11T05:09:35.254Z,4.93
2023-04-11T05:12:02.021Z,8.43
2023-04-11T05:14:28.653Z,3.60
2023-04-11T05:16:55.246Z,4.22
2023-04-11T05:19:21.932Z,7.88
2023-04-11T05:21:48.686Z,5.10
2023-04-11T05:24:15.436Z,3.47
2023-04-11T05:26:42.190Z,3.88
2023-04-11T05:29:08.943Z,6.72
2023-04-11T05:31:35.795Z,3.50
2023-04-11T05:34:02.570Z,2.95
2023-04-11T05:36:29.444Z,7.23
2023-04-11T05:38:56.063Z,13.95
2023-04-11T05:41:22.755Z,10.55
2023-04-11T05:43:49.336Z,5.50
2023-04-11T05:46:16.029Z,8.93
2023-04-11T05:48:45.096Z,4.13
2023-04-11T05:51:11.752Z,6.13
2023-04-11T05:53:38.462Z,5.25
2023-04-11T05:56:05.507Z,2.10
2023-04-11T05:58:32.228Z,7.85
2023-04-11T06:00:59.970Z,4.37
2023-04-11T06:03:27.342Z,3.65
2023-04-11T06:05:54.399Z,4.10
2023-04-11T06:08:21.622Z,8.25
2023-04-11T06:10:48.312Z,6.72
2023-04-11T06:13:15.082Z,5.20
2023-04-11T06:15:41.849Z,2.80
2023-04-11T06:18:08.602Z,4.40
2023-04-11T06:23:29.482Z,4.50
2023-04-11T06:25:56.146Z,3.60
2023-04-11T06:28:22.848Z,5.50
2023-04-11T06:30:49.766Z,6.18
2023-04-11T06:33:16.338Z,5.63
2023-04-11T06:38:38.130Z,4.97
2023-04-11T06:41:04.989Z,3.00
2023-04-11T06:43:32.366Z,9.50
2023-04-11T06:45:59.179Z,14.27
2023-04-11T06:48:26.173Z,3.28
2023-04-11T06:50:52.749Z,6.90
2023-04-11T06:53:19.411Z,6.32
2023-04-11T06:55:49.956Z,2.85
2023-04-11T06:58:17.239Z,8.32
2023-04-11T07:00:44.255Z,2.83
2023-04-11T07:03:11.314Z,7.37
2023-04-11T07:08:32.511Z,7.70
2023-04-11T07:10:59.822Z,3.28
2023-04-11T07:13:26.745Z,6.18
2023-04-11T07:15:53.387Z,4.57
2023-04-11T07:18:19.917Z,8.48
2023-04-11T07:23:42.072Z,7.20
2023-04-11T07:26:12.100Z,7.10
2023-04-11T07:28:40.384Z,6.20
2023-04-11T07:31:12.341Z,5.50
2023-04-11T07:33:43.212Z,5.32
2023-04-11T07:36:17.952Z,7.00
2023-04-11T07:38:44.824Z,2.78
2023-04-11T07:41:11.720Z,6.77
2023-04-11T07:46:40.886Z,6.07
2023-04-11T07:49:07.981Z,4.53
2023-04-11T07:51:35.178Z,6.03
2023-04-11T07:54:01.894Z,4.30
2023-04-11T07:56:28.575Z,3.97
2023-04-11T07:58:55.078Z,9.00
2023-04-11T08:01:24.155Z,4.22
2023-04-11T08:03:55.989Z,3.50
2023-04-11T08:06:23.677Z,2.63
2023-04-11T08:08:51.283Z,5.45
2023-04-11T08:11:18.018Z,6.47
2023-04-11T08:13:45.314Z,2.22
2023-04-11T08:16:15.607Z,4.80
2023-04-11T08:18:42.857Z,9.03
2023-04-11T08:21:12.410Z,3.35
2023-04-11T08:23:40.013Z,5.55
2023-04-11T08:26:08.285Z,4.60
2023-04-11T08:28:36.034Z,3.72
2023-04-11T08:31:04.334Z,4.30
2023-04-11T08:33:31.685Z,3.92
2023-04-11T08:35:59.074Z,11.90
2023-04-11T08:38:29.953Z,1.08
2023-04-11T08:40:59.012Z,6.03
2023-04-11T08:43:25.885Z,7.63
2023-04-11T08:45:52.529Z,4.53
2023-04-11T08:48:21.934Z,4.50
2023-04-11T08:50:48.722Z,1.98
2023-04-11T08:53:18.923Z,9.45
2023-04-11T08:55:47.049Z,3.13
2023-04-11T08:58:14.077Z,4.57
2023-04-11T09:03:51.998Z,4.80
2023-04-11T09:06:18.741Z,2.50
2023-04-11T09:08:45.738Z,6.37
2023-04-11T09:11:51.880Z,3.80
2023-04-11T09:14:18.535Z,5.43
2023-04-11T09:16:57.159Z,4.03
2023-04-11T09:19:25.522Z,1.98
2023-04-11T09:21:54.033Z,1.60
2023-04-11T09:24:20.687Z,2.05
2023-04-11T09:26:47.500Z,1.85
2023-04-11T09:29:38.712Z,3.38
2023-04-11T09:32:05.776Z,3.72
2023-04-11T09:34:34.768Z,1.43
2023-04-11T09:37:02.313Z,3.22
2023-04-11T09:39:29.906Z,2.38
2023-04-11T09:41:57.550Z,1.73
2023-04-11T09:44:38.720Z,3.28
2023-04-11T09:47:05.667Z,2.27
2023-04-11T09:49:34.452Z,2.00
2023-04-11T09:52:02.171Z,2.65
2023-04-11T09:54:30.022Z,3.95
2023-04-11T09:56:57.196Z,4.88
2023-04-11T09:59:27.042Z,6.17
2023-04-11T10:01:53.883Z,2.63
2023-04-11T10:04:21.003Z,4.15
2023-04-11T10:07:17.327Z,2.20
2023-04-11T10:09:46.093Z,2.55
2023-04-11T10:12:12.734Z,4.10
2023-04-11T10:14:41.539Z,3.08
2023-04-11T10:17:22.985Z,6.53
2023-04-11T10:19:56.404Z,3.33
2023-04-11T10:22:41.939Z,1.23
2023-04-11T10:25:22.073Z,3.93
2023-04-11T10:28:01.003Z,2.80
2023-04-11T10:31:04.511Z,1.73
2023-04-11T10:33:32.278Z,4.00
2023-04-11T10:36:12.681Z,2.35
2023-04-11T10:38:44.643Z,1.60
2023-04-11T10:41:17.969Z,1.20
2023-04-11T10:43:45.581Z,2.80
2023-04-11T10:46:18.464Z,1.25
2023-04-11T10:49:08.854Z,4.25
2023-04-11T10:51:35.591Z,5.07
2023-04-11T10:54:02.940Z,1.40
2023-04-11T10:56:47.130Z,3.10
2023-04-11T10:59:34.475Z,2.72
2023-04-11T11:02:02.647Z,2.15
2023-04-11T11:04:37.487Z,2.57
2023-04-11T11:07:07.098Z,4.13
2023-04-11T11:09:35.212Z,4.72
2023-04-11T11:12:16.358Z,4.18
2023-04-11T11:14:45.727Z,1.65
2023-04-11T11:17:16.716Z,1.40
2023-04-11T11:19:45.159Z,1.45
2023-04-11T11:22:16.191Z,2.60
2023-04-11T11:24:42.956Z,2.10
2023-04-11T11:27:22.831Z,5.28
2023-04-11T11:29:50.336Z,8.53
2023-04-11T11:32:29.824Z,4.40
2023-04-11T11:34:58.047Z,3.50
2023-04-11T11:37:24.947Z,2.95
2023-04-11T11:39:52.435Z,6.68
2023-04-11T11:42:19.505Z,2.33
2023-04-11T11:44:46.392Z,3.28
2023-04-11T11:47:16.882Z,2.63
2023-04-11T11:49:54.283Z,5.32
2023-04-11T11:52:33.881Z,1.88
2023-04-11T11:55:02.201Z,1.63
2023-04-11T11:57:29.092Z,2.95
2023-04-11T11:59:57.281Z,3.25
2023-04-11T12:02:28.765Z,4.35
2023-04-11T12:05:00.319Z,4.80
2023-04-11T12:07:32.585Z,3.43
2023-04-11T12:10:01.354Z,4.15
2023-04-11T12:12:38.431Z,2.85
2023-04-11T12:15:19.144Z,2.95
2023-04-11T12:17:50.464Z,2.22
2023-04-11T12:20:17.607Z,6.07
2023-04-11T12:22:44.300Z,5.00
2023-04-11T12:25:12.831Z,4.35
2023-04-11T12:27:43.639Z,3.50
2023-04-11T12:30:11.595Z,5.07
2023-04-11T12:32:38.905Z,3.57
2023-04-11T12:35:06.467Z,2.38
2023-04-11T12:37:34.517Z,2.63
2023-04-11T12:40:01.870Z,3.95
2023-04-11T12:42:28.672Z,2.75
2023-04-11T12:44:55.771Z,3.27
2023-04-11T12:47:22.523Z,3.38
2023-04-11T12:49:49.420Z,3.50
2023-04-11T12:52:16.515Z,3.63
2023-04-11T12:54:45.892Z,2.95
2023-04-11T12:57:13.633Z,4.20
2023-04-11T12:59:40.552Z,3.15
2023-04-11T13:02:07.844Z,3.70
2023-04-11T13:04:34.695Z,2.30
2023-04-11T13:07:02.032Z,4.05
2023-04-11T13:09:31.999Z,2.53
2023-04-11T13:11:59.309Z,3.63
2023-04-11T13:14:25.986Z,2.78
2023-04-11T13:16:52.656Z,4.53
2023-04-11T13:19:19.513Z,4.15
2023-04-11T13:21:46.231Z,4.23
2023-04-11T13:24:12.768Z,3.40
2023-04-11T13:26:39.523Z,1.83
2023-04-11T13:29:07.508Z,5.43
2023-04-11T13:31:34.136Z,3.05
2023-04-11T13:34:01.713Z,4.07
2023-04-11T13:36:28.824Z,3.15
2023-04-11T13:38:57.377Z,1.73
2023-04-11T13:41:31.599Z,2.78
2023-04-11T13:43:58.202Z,5.00
2023-04-11T13:46:24.807Z,1.57
2023-04-11T13:48:51.879Z,5.70
2023-04-11T13:51:19.286Z,4.53
2023-04-11T13:53:46.042Z,1.20
2023-04-11T13:56:17.754Z,2.25
2023-04-11T13:58:44.486Z,2.23
2023-04-11T14:01:11.809Z,2.10
2023-04-11T14:03:38.781Z,3.67
2023-04-11T14:06:05.803Z,5.35
2023-04-11T14:08:32.405Z,2.22
2023-04-11T14:11:31.669Z,8.47
2023-04-11T14:13:58.487Z,2.60
2023-04-11T14:16:25.813Z,2.13
2023-04-11T14:18:52.816Z,2.83
2023-04-11T14:21:19.819Z,6.25
2023-04-11T14:23:46.814Z,2.70
2023-04-11T14:26:13.560Z,2.35
2023-04-11T14:28:40.356Z,1.83
2023-04-11T14:31:07.240Z,3.08
2023-04-11T14:33:34.078Z,2.95
2023-04-11T14:36:01.401Z,4.87
2023-04-11T14:38:27.938Z,3.08
2023-04-11T14:40:54.685Z,6.65
2023-04-11T14:43:21.271Z,5.03
2023-04-11T14:45:48.008Z,1.70
2023-04-11T14:48:14.551Z,4.17
2023-04-11T14:50:41.067Z,3.05
2023-04-11T14:53:07.626Z,5.72
2023-04-11T14:55:34.554Z,2.88
2023-04-11T14:58:01.353Z,4.13
2023-04-11T15:00:28.257Z,6.37
2023-04-11T15:02:56.728Z,3.35
2023-04-11T15:05:24.232Z,2.85
2023-04-11T15:07:52.567Z,4.75
2023-04-11T15:10:21.610Z,2.05
2023-04-11T15:12:48.627Z,2.77
2023-04-11T15:15:16.113Z,1.77
2023-04-11T15:17:46.681Z,2.28
2023-04-11T15:20:17.463Z,2.85
2023-04-11T15:22:47.898Z,4.63
2023-04-11T15:25:16.275Z,2.10
2023-04-11T15:27:43.342Z,2.75
2023-04-11T15:30:11.740Z,2.25
2023-04-11T15:32:45.371Z,2.38
2023-04-11T15:35:12.429Z,1.48
2023-04-11T15:37:39.249Z,7.17
2023-04-11T15:40:06.617Z,2.50
2023-04-11T15:42:35.443Z,6.38
2023-04-11T15:45:02.523Z,2.40
2023-04-11T15:47:29.390Z,3.95
2023-04-11T15:49:56.505Z,3.53
2023-04-11T15:52:23.471Z,1.80
2023-04-11T15:54:50.601Z,4.63
2023-04-11T15:57:18.660Z,3.83
2023-04-11T15:59:45.795Z,3.45
2023-04-11T16:02:15.325Z,2.37
2023-04-11T16:04:47.006Z,2.40
2023-04-11T16:07:18.644Z,1.83
2023-04-11T16:09:45.378Z,1.92
2023-04-11T16:12:12.226Z,3.00
2023-04-11T16:14:38.825Z,3.47
2023-04-11T16:17:05.782Z,3.15
2023-04-11T16:19:32.637Z,3.10
2023-04-11T16:21:59.254Z,1.55
2023-04-11T16:24:28.218Z,3.03
2023-04-11T16:26:55.009Z,3.63
2023-04-11T16:29:21.536Z,4.25
2023-04-11T16:31:48.331Z,5.97
2023-04-11T16:34:15.040Z,1.85
2023-04-11T16:36:41.829Z,2.25
2023-04-11T16:39:09.297Z,3.20
2023-04-11T16:44:32.491Z,4.20
2023-04-11T16:46:59.609Z,1.40
2023-04-11T16:49:26.209Z,2.58
2023-04-11T16:51:52.946Z,3.70
2023-04-11T16:54:19.689Z,4.93
2023-04-11T16:56:47.427Z,4.85
2023-04-11T16:59:14.568Z,2.30
2023-04-11T17:01:41.977Z,2.95
2023-04-11T17:04:09.712Z,2.70
2023-04-11T17:06:37.110Z,3.72
2023-04-11T17:09:05.494Z,2.85
2023-04-11T17:11:32.560Z,3.80
2023-04-11T17:14:04.664Z,5.35
2023-04-11T17:16:31.467Z,2.67
2023-04-11T17:18:58.429Z,2.80
2023-04-11T17:21:26.124Z,3.40
2023-04-11T17:23:52.936Z,4.97
2023-04-11T17:26:20.248Z,4.47
2023-04-11T17:28:47.009Z,5.27
2023-04-11T17:31:15.186Z,5.68
2023-04-11T17:33:43.996Z,9.23
2023-04-11T17:36:14.233Z,3.38
2023-04-11T17:38:43.826Z,6.13
2023-04-11T17:41:15.011Z,2.90
2023-04-11T17:43:43.377Z,3.28
2023-04-11T17:46:10.297Z,4.00
2023-04-11T17:48:37.241Z,3.13
2023-04-11T17:51:05.622Z,3.67
2023-04-11T17:53:33.080Z,3.57
2023-04-11T17:56:04.734Z,4.75
2023-04-11T17:58:31.854Z,3.53
2023-04-11T18:00:58.517Z,6.00
2023-04-11T18:03:25.896Z,3.33
2023-04-11T18:05:54.415Z,8.90
2023-04-11T18:08:28.633Z,4.63
2023-04-11T18:11:00.415Z,2.47
2023-04-11T18:13:27.650Z,5.32
2023-04-11T18:15:56.120Z,4.43
2023-04-11T18:18:22.799Z,2.93
2023-04-11T18:20:49.480Z,4.70
2023-04-11T18:23:16.129Z,3.75
2023-04-11T18:25:42.626Z,7.68
2023-04-11T18:28:09.400Z,8.25
2023-04-11T18:30:36.411Z,9.97
2023-04-11T18:33:04.534Z,5.90
2023-04-11T18:35:31.700Z,7.20
2023-04-11T18:37:58.315Z,4.68
2023-04-11T18:40:25.816Z,5.00
2023-04-11T18:42:55.012Z,9.07
2023-04-11T18:45:23.137Z,3.22
2023-04-11T18:47:50.122Z,8.68
2023-04-11T18:50:18.628Z,6.68
2023-04-11T18:52:47.547Z,4.88
2023-04-11T18:55:16.238Z,14.90
2023-04-11T18:57:47.442Z,6.10
2023-04-11T19:00:18.569Z,9.40
2023-04-11T19:02:47.068Z,7.50
2023-04-11T19:05:15.786Z,5.45
2023-04-11T19:07:43.176Z,8.77
2023-04-11T19:10:11.485Z,6.60
2023-04-11T19:12:38.517Z,11.45
2023-04-11T19:15:08.341Z,4.57
2023-04-11T19:17:36.639Z,4.85
2023-04-11T19:20:07.084Z,8.63
2023-04-11T19:22:36.023Z,5.28
2023-04-11T19:25:02.838Z,4.50
2023-04-11T19:27:29.932Z,10.25
2023-04-11T19:29:57.096Z,2.97
2023-04-11T19:32:23.748Z,7.53
2023-04-11T19:34:50.989Z,7.22
2023-04-11T19:37:19.595Z,4.82
2023-04-11T19:39:46.223Z,6.05
2023-04-11T19:42:12.953Z,5.47
2023-04-11T19:44:40.028Z,9.40
2023-04-11T19:47:06.659Z,6.15
2023-04-11T19:49:33.109Z,5.20
2023-04-11T19:51:59.732Z,6.13
2023-04-11T19:54:26.520Z,7.60
2023-04-11T19:56:53.500Z,3.63
2023-04-11T19:59:20.328Z,5.30
2023-04-11T20:01:47.070Z,5.80
2023-04-11T20:04:16.323Z,4.47
2023-04-11T20:06:44.498Z,3.03
2023-04-11T20:09:11.931Z,3.60
2023-04-11T20:11:43.252Z,10.05
2023-04-11T20:14:09.751Z,9.77
2023-04-11T20:16:36.575Z,12.35
2023-04-11T20:19:03.408Z,5.72
2023-04-11T20:21:30.070Z,10.70
2023-04-11T20:23:58.424Z,3.78
2023-04-11T20:26:25.269Z,5.10
2023-04-11T20:28:53.089Z,5.25
2023-04-11T20:31:19.786Z,7.25
2023-04-11T20:33:46.830Z,3.80
2023-04-11T20:36:15.681Z,8.60
2023-04-11T20:38:42.708Z,5.80
2023-04-11T20:41:09.680Z,5.03
2023-04-11T20:43:41.990Z,3.92
2023-04-11T20:46:09.113Z,3.50
2023-04-11T20:48:36.161Z,4.85
2023-04-11T20:51:02.809Z,5.38
2023-04-11T20:53:29.434Z,4.18
2023-04-11T20:55:56.790Z,4.13
2023-04-11T20:58:23.471Z,2.47
2023-04-11T21:00:50.069Z,3.83
2023-04-11T21:03:16.939Z,3.33
2023-04-11T21:05:44.321Z,6.05
2023-04-11T21:08:14.347Z,3.58
2023-04-11T21:13:34.973Z,4.03
2023-04-11T21:16:01.832Z,8.82
2023-04-11T21:18:28.970Z,3.03
2023-04-11T21:20:55.655Z,3.38
2023-04-11T21:23:22.292Z,4.90
2023-04-11T21:25:48.931Z,3.05
2023-04-11T21:28:15.551Z,5.75
2023-04-11T21:30:42.418Z,7.05
2023-04-11T21:33:10.375Z,6.10
2023-04-11T21:35:37.138Z,4.97
2023-04-11T21:38:03.936Z,2.80
2023-04-11T21:40:31.063Z,4.97
2023-04-11T21:42:57.668Z,9.80
2023-04-11T21:45:24.350Z,2.90
2023-04-11T21:47:51.408Z,10.63
2023-04-11T21:50:18.550Z,2.55
2023-04-11T21:52:46.363Z,5.85
2023-04-11T21:55:14.572Z,7.53
2023-04-11T21:57:41.839Z,4.20
2023-04-11T22:00:11.155Z,2.70
2023-04-11T22:02:38.895Z,1.38
2023-04-11T22:05:08.789Z,4.28
2023-04-11T22:07:46.353Z,2.30
2023-04-11T22:10:14.195Z,6.15
2023-04-11T22:12:41.864Z,3.93
2023-04-11T22:15:11.098Z,2.08
2023-04-11T22:17:38.560Z,4.90
2023-04-11T22:20:07.037Z,5.05
2023-04-11T22:22:35.265Z,3.00
2023-04-11T22:25:01.975Z,2.27
2023-04-11T22:27:29.548Z,4.85
2023-04-11T22:29:56.289Z,5.18
2023-04-11T22:32:23.854Z,4.03
2023-04-11T22:34:50.876Z,4.15
2023-04-11T22:37:17.481Z,5.20
2023-04-11T22:39:44.064Z,5.80
2023-04-11T22:42:11.856Z,6.93
2023-04-11T22:44:38.515Z,4.15
2023-04-11T22:47:08.600Z,3.90
2023-04-11T22:49:40.620Z,4.10
2023-04-11T22:52:14.476Z,3.22
2023-04-11T22:54:42.662Z,4.70
2023-04-11T22:57:10.093Z,6.03
2023-04-11T22:59:36.915Z,7.20
2023-04-11T23:02:03.788Z,4.83
2023-04-11T23:04:31.779Z,7.75
2023-04-11T23:06:58.503Z,7.45
2023-04-11T23:09:25.299Z,7.43
2023-04-11T23:11:52.294Z,4.85
2023-04-11T23:14:21.367Z,23.67
2023-04-11T23:16:48.388Z,9.93
2023-04-11T23:19:15.063Z,17.83
2023-04-11T23:21:42.243Z,13.48
2023-04-11T23:24:09.992Z,15.98
2023-04-11T23:26:37.316Z,19.60
2023-04-11T23:29:04.359Z,20.80
2023-04-11T23:31:31.750Z,10.15
2023-04-11T23:33:58.510Z,8.50
2023-04-11T23:36:27.526Z,12.07
2023-04-11T23:38:54.291Z,5.97
2023-04-11T23:41:20.880Z,6.20
2023-04-11T23:43:47.366Z,7.13
2023-04-11T23:46:21.564Z,7.88
2023-04-11T23:48:48.107Z,6.00
2023-04-11T23:51:15.505Z,4.43
2023-04-11T23:53:42.943Z,8.48
2023-04-11T23:56:09.683Z,4.35
2023-04-11T23:58:36.485Z,9.60
